Airfield :
LOGIN :

Register | Disclaimer

   EN    FR    IT 

 










Legend :    VFR   Marginal VFR   IFR   Intensive IFR   Very Intensive IFR
Visi :
Ceiling :
>= 8 km
>= 3000ft
5 to 8 km
1000 to 3000 ft
1500m to 5 km
500 to 1000 ft
800 to 1500m
200 to 500 ft
< 800m
< 200 ft
Symbols :   Thunderstorms  Fog  Heavy snow  Heavy precipitations  Wind > 20 kt
SIGMETs :     Misc.  Thunderstorms  Icing  Turbulence  Mountain Waves  Volcanic Ashes






- Airport Elevation : 313 ft
- IATA code : LEH


LFOH - Le Havre Octeville

CURRENT METAR :
  • 221000Z AUTO 29013KT 260V320 9999 FEW014 BKN025 BKN030 17/12 Q1015 NOSIG

EXPIRED METARs :
  • 220930Z AUTO 28013KT 260V320 9999 BKN014 BKN023 OVC050 15/12 Q1015 BECMG SCT030
  • 220900Z AUTO 27015KT 9999 BKN013 OVC030 15/12 Q1015 TEMPO 4000 RADZ BECMG SCT030
  • 220830Z AUTO 28013KT 250V310 9000 FEW013 BKN026 OVC050 16/13 Q1014 TEMPO 4000 RADZ BKN008 BKN014
  • 220800Z AUTO 28015KT 9000 BKN011 BKN017 OVC047 16/13 Q1014 TEMPO 4000 RADZ BKN008 BKN014
  • 220730Z AUTO 28015KT 9000 BKN010 BKN014 OVC022 15/13 Q1014 TEMPO 4000 RADZ
  • 220700Z AUTO 27016KT 9999 FEW005/// BKN009/// OVC017/// //////TCU 15/13 Q1013 TEMPO 4000 RADZ BKN008 BKN014
  • 220630Z AUTO 26016KT 9999 OVC007 14/13 Q1013 TEMPO 4000 RADZ
  • 220600Z AUTO 24013KT 9000 3700 OVC005/// ///TCU 14/14 Q1013 TEMPO 4000 RADZ BKN008 BKN014
  • 220530Z AUTO 23011KT 9999 OVC006/// ///TCU 14/13 Q1013

TAF TAF LFOH
Valid from the 22 at 06:00 until the 23 at 06:00 UTC


220500Z 2206/2306 28012KT 9999 SCT030
TEMPO 2206/2210 4000 RADZ BKN008 BKN014
BECMG 2303/2305 22005KT
PROB40
TEMPO 2303/2306 4000 BR OVC003
ATIS : +33 2 35 54 64 93



MET'MAP, your aeronautical weather chart ! - Copyright ORBIFLY December 2007 - Disclaimer

ORBIFLY MET'MAP TEAM :

Programming & Development : Alexandra Zaïnal
Original concept : Baudouin d'Aumeries
Technical & hardware support : Manuel Goepfert
Assistance : Marc-Olivier Méhu




SOURCES & CREDITS :

   NOAA